sensor_id;sensor_type;location;lat;lon;timestamp;temperature;humidity
16663;DHT22;8445;51.270;9.434;2022-11-14T00:00:12;0.60;36.70
16663;DHT22;8445;51.270;9.434;2022-11-14T00:03:02;0.60;37.40
16663;DHT22;8445;51.270;9.434;2022-11-14T00:05:48;0.60;39.20
16663;DHT22;8445;51.270;9.434;2022-11-14T00:08:33;0.50;41.10
16663;DHT22;8445;51.270;9.434;2022-11-14T00:11:17;0.50;40.30
16663;DHT22;8445;51.270;9.434;2022-11-14T00:14:02;0.40;39.10
16663;DHT22;8445;51.270;9.434;2022-11-14T00:16:47;0.40;39.30
16663;DHT22;8445;51.270;9.434;2022-11-14T00:19:31;0.30;38.90
16663;DHT22;8445;51.270;9.434;2022-11-14T00:22:16;0.30;37.70
16663;DHT22;8445;51.270;9.434;2022-11-14T00:25:00;0.30;36.80
16663;DHT22;8445;51.270;9.434;2022-11-14T00:27:45;0.20;36.80
16663;DHT22;8445;51.270;9.434;2022-11-14T00:30:29;0.20;36.70
16663;DHT22;8445;51.270;9.434;2022-11-14T00:33:14;0.20;37.00
16663;DHT22;8445;51.270;9.434;2022-11-14T00:35:59;0.10;37.10
16663;DHT22;8445;51.270;9.434;2022-11-14T00:38:43;0.10;37.70
16663;DHT22;8445;51.270;9.434;2022-11-14T00:41:28;0.00;37.40
16663;DHT22;8445;51.270;9.434;2022-11-14T00:44:12;0.00;36.80
16663;DHT22;8445;51.270;9.434;2022-11-14T00:46:57;-0.10;37.60
16663;DHT22;8445;51.270;9.434;2022-11-14T00:49:44;-0.10;38.10
16663;DHT22;8445;51.270;9.434;2022-11-14T00:52:28;-0.20;37.00
16663;DHT22;8445;51.270;9.434;2022-11-14T00:55:13;-0.20;35.40
16663;DHT22;8445;51.270;9.434;2022-11-14T00:57:58;-0.20;35.20
16663;DHT22;8445;51.270;9.434;2022-11-14T01:00:42;-0.20;36.10
16663;DHT22;8445;51.270;9.434;2022-11-14T01:03:27;-0.30;37.10
16663;DHT22;8445;51.270;9.434;2022-11-14T01:06:11;-0.30;37.50
16663;DHT22;8445;51.270;9.434;2022-11-14T01:08:57;-0.40;38.00
16663;DHT22;8445;51.270;9.434;2022-11-14T01:11:42;-0.50;38.10
16663;DHT22;8445;51.270;9.434;2022-11-14T01:14:26;-0.50;37.70
16663;DHT22;8445;51.270;9.434;2022-11-14T01:17:11;-0.60;36.60
16663;DHT22;8445;51.270;9.434;2022-11-14T01:19:55;-0.60;35.60
16663;DHT22;8445;51.270;9.434;2022-11-14T01:22:40;-0.60;35.20
16663;DHT22;8445;51.270;9.434;2022-11-14T01:25:25;-0.70;34.80
16663;DHT22;8445;51.270;9.434;2022-11-14T01:28:12;-0.70;34.40
16663;DHT22;8445;51.270;9.434;2022-11-14T01:31:09;-0.70;34.40
16663;DHT22;8445;51.270;9.434;2022-11-14T01:33:59;-0.70;34.30
16663;DHT22;8445;51.270;9.434;2022-11-14T01:36:43;-0.70;33.10
16663;DHT22;8445;51.270;9.434;2022-11-14T01:39:28;-0.70;31.80
16663;DHT22;8445;51.270;9.434;2022-11-14T01:42:13;-0.70;30.40
16663;DHT22;8445;51.270;9.434;2022-11-14T01:44:57;-0.70;30.00
16663;DHT22;8445;51.270;9.434;2022-11-14T01:47:42;-0.70;30.10
16663;DHT22;8445;51.270;9.434;2022-11-14T01:50:27;-0.70;29.90
16663;DHT22;8445;51.270;9.434;2022-11-14T01:53:11;-0.60;30.20
16663;DHT22;8445;51.270;9.434;2022-11-14T01:56:02;-0.60;30.40
16663;DHT22;8445;51.270;9.434;2022-11-14T01:58:53;-0.60;29.40
16663;DHT22;8445;51.270;9.434;2022-11-14T02:01:49;-0.60;28.80
16663;DHT22;8445;51.270;9.434;2022-11-14T02:04:40;-0.60;29.30
16663;DHT22;8445;51.270;9.434;2022-11-14T02:07:31;-0.60;31.40
16663;DHT22;8445;51.270;9.434;2022-11-14T02:10:20;-0.70;32.20
16663;DHT22;8445;51.270;9.434;2022-11-14T02:13:05;-0.70;31.20
16663;DHT22;8445;51.270;9.434;2022-11-14T02:15:50;-0.70;30.30
16663;DHT22;8445;51.270;9.434;2022-11-14T02:18:34;-0.70;28.00
16663;DHT22;8445;51.270;9.434;2022-11-14T02:21:19;-0.70;26.60
16663;DHT22;8445;51.270;9.434;2022-11-14T02:24:08;-0.70;27.80
16663;DHT22;8445;51.270;9.434;2022-11-14T02:26:54;-0.70;29.60
16663;DHT22;8445;51.270;9.434;2022-11-14T02:29:39;-0.70;30.80
16663;DHT22;8445;51.270;9.434;2022-11-14T02:32:23;-0.80;30.60
16663;DHT22;8445;51.270;9.434;2022-11-14T02:35:08;-0.80;29.20
16663;DHT22;8445;51.270;9.434;2022-11-14T02:37:53;-0.80;28.20
16663;DHT22;8445;51.270;9.434;2022-11-14T02:40:37;-0.80;28.10
16663;DHT22;8445;51.270;9.434;2022-11-14T02:43:22;-0.80;28.20
16663;DHT22;8445;51.270;9.434;2022-11-14T02:46:06;-0.90;28.80
16663;DHT22;8445;51.270;9.434;2022-11-14T02:48:51;-0.90;28.90
16663;DHT22;8445;51.270;9.434;2022-11-14T02:51:36;-0.90;29.10
16663;DHT22;8445;51.270;9.434;2022-11-14T02:54:20;-1.00;28.90
16663;DHT22;8445;51.270;9.434;2022-11-14T02:57:05;-1.00;28.70
16663;DHT22;8445;51.270;9.434;2022-11-14T02:59:49;-1.10;28.30
16663;DHT22;8445;51.270;9.434;2022-11-14T03:02:34;-1.10;27.20
16663;DHT22;8445;51.270;9.434;2022-11-14T03:05:19;-1.10;25.30
16663;DHT22;8445;51.270;9.434;2022-11-14T03:08:04;-1.10;24.30
16663;DHT22;8445;51.270;9.434;2022-11-14T03:10:48;-1.10;24.00
16663;DHT22;8445;51.270;9.434;2022-11-14T03:13:33;-1.10;24.10
16663;DHT22;8445;51.270;9.434;2022-11-14T03:16:18;-1.10;23.00
16663;DHT22;8445;51.270;9.434;2022-11-14T03:19:02;-1.10;23.60
16663;DHT22;8445;51.270;9.434;2022-11-14T03:21:47;-1.10;24.10
16663;DHT22;8445;51.270;9.434;2022-11-14T03:24:32;-1.10;22.70
16663;DHT22;8445;51.270;9.434;2022-11-14T03:27:16;-1.10;22.30
16663;DHT22;8445;51.270;9.434;2022-11-14T03:30:01;-1.10;22.80
16663;DHT22;8445;51.270;9.434;2022-11-14T03:32:46;-1.10;22.60
16663;DHT22;8445;51.270;9.434;2022-11-14T03:35:30;-1.10;22.90
16663;DHT22;8445;51.270;9.434;2022-11-14T03:38:16;-1.10;23.50
16663;DHT22;8445;51.270;9.434;2022-11-14T03:41:01;-1.10;21.00
16663;DHT22;8445;51.270;9.434;2022-11-14T03:43:45;-1.10;22.60
16663;DHT22;8445;51.270;9.434;2022-11-14T03:46:30;-1.10;25.70
16663;DHT22;8445;51.270;9.434;2022-11-14T03:49:14;-1.10;28.20
16663;DHT22;8445;51.270;9.434;2022-11-14T03:51:59;-1.10;29.10
16663;DHT22;8445;51.270;9.434;2022-11-14T03:54:43;-1.20;29.50
16663;DHT22;8445;51.270;9.434;2022-11-14T03:57:28;-1.20;28.20
16663;DHT22;8445;51.270;9.434;2022-11-14T04:00:13;-1.20;27.70
16663;DHT22;8445;51.270;9.434;2022-11-14T04:02:58;-1.30;28.10
16663;DHT22;8445;51.270;9.434;2022-11-14T04:05:43;-1.30;27.50
16663;DHT22;8445;51.270;9.434;2022-11-14T04:08:29;-1.30;27.00
16663;DHT22;8445;51.270;9.434;2022-11-14T04:11:14;-1.40;25.60
16663;DHT22;8445;51.270;9.434;2022-11-14T04:13:58;-1.40;24.10
16663;DHT22;8445;51.270;9.434;2022-11-14T04:16:43;-1.40;22.90
16663;DHT22;8445;51.270;9.434;2022-11-14T04:19:28;-1.30;22.50
16663;DHT22;8445;51.270;9.434;2022-11-14T04:22:12;-1.30;22.00
16663;DHT22;8445;51.270;9.434;2022-11-14T04:24:57;-1.30;22.10
16663;DHT22;8445;51.270;9.434;2022-11-14T04:27:42;-1.30;21.70
16663;DHT22;8445;51.270;9.434;2022-11-14T04:30:27;-1.30;20.00
16663;DHT22;8445;51.270;9.434;2022-11-14T04:33:11;-1.30;20.30
16663;DHT22;8445;51.270;9.434;2022-11-14T04:35:56;-1.30;20.70
16663;DHT22;8445;51.270;9.434;2022-11-14T04:38:40;-1.30;21.40
16663;DHT22;8445;51.270;9.434;2022-11-14T04:41:25;-1.30;22.00
16663;DHT22;8445;51.270;9.434;2022-11-14T04:44:10;-1.30;21.70
16663;DHT22;8445;51.270;9.434;2022-11-14T04:46:54;-1.30;18.60
16663;DHT22;8445;51.270;9.434;2022-11-14T04:49:39;-1.30;17.10
16663;DHT22;8445;51.270;9.434;2022-11-14T04:52:24;-1.30;17.10
16663;DHT22;8445;51.270;9.434;2022-11-14T04:55:09;-1.30;16.80
16663;DHT22;8445;51.270;9.434;2022-11-14T04:57:54;-1.20;16.50
16663;DHT22;8445;51.270;9.434;2022-11-14T05:00:40;-1.20;15.30
16663;DHT22;8445;51.270;9.434;2022-11-14T05:03:25;-1.20;13.30
16663;DHT22;8445;51.270;9.434;2022-11-14T05:06:10;-1.10;11.20
16663;DHT22;8445;51.270;9.434;2022-11-14T05:08:54;-1.10;12.90
16663;DHT22;8445;51.270;9.434;2022-11-14T05:11:39;-1.10;15.00
16663;DHT22;8445;51.270;9.434;2022-11-14T05:14:23;-1.10;15.00
16663;DHT22;8445;51.270;9.434;2022-11-14T05:17:08;-1.10;17.00
16663;DHT22;8445;51.270;9.434;2022-11-14T05:19:52;-1.20;17.40
16663;DHT22;8445;51.270;9.434;2022-11-14T05:22:37;-1.20;16.80
16663;DHT22;8445;51.270;9.434;2022-11-14T05:25:22;-1.20;16.90
16663;DHT22;8445;51.270;9.434;2022-11-14T05:28:06;-1.30;17.80
16663;DHT22;8445;51.270;9.434;2022-11-14T05:30:51;-1.30;19.30
16663;DHT22;8445;51.270;9.434;2022-11-14T05:33:35;-1.40;19.60
16663;DHT22;8445;51.270;9.434;2022-11-14T05:36:20;-1.40;17.80
16663;DHT22;8445;51.270;9.434;2022-11-14T05:39:05;-1.40;14.20
16663;DHT22;8445;51.270;9.434;2022-11-14T05:41:49;-1.50;14.40
16663;DHT22;8445;51.270;9.434;2022-11-14T05:44:34;-1.50;15.40
16663;DHT22;8445;51.270;9.434;2022-11-14T05:47:19;-1.50;16.20
16663;DHT22;8445;51.270;9.434;2022-11-14T05:50:03;-1.50;16.20
16663;DHT22;8445;51.270;9.434;2022-11-14T05:52:48;-1.60;15.90
16663;DHT22;8445;51.270;9.434;2022-11-14T05:55:32;-1.60;14.60
16663;DHT22;8445;51.270;9.434;2022-11-14T05:58:17;-1.60;12.10
16663;DHT22;8445;51.270;9.434;2022-11-14T06:01:09;-1.50;6.00
16663;DHT22;8445;51.270;9.434;2022-11-14T06:03:56;-1.40;4.30
16663;DHT22;8445;51.270;9.434;2022-11-14T06:06:41;-1.30;2.20
16663;DHT22;8445;51.270;9.434;2022-11-14T06:09:26;-1.20;2.40
16663;DHT22;8445;51.270;9.434;2022-11-14T06:12:10;-1.20;4.30
16663;DHT22;8445;51.270;9.434;2022-11-14T06:14:55;-1.10;5.70
16663;DHT22;8445;51.270;9.434;2022-11-14T06:17:39;-1.10;8.80
16663;DHT22;8445;51.270;9.434;2022-11-14T06:20:24;-1.10;10.80
16663;DHT22;8445;51.270;9.434;2022-11-14T06:23:09;-1.10;9.80
16663;DHT22;8445;51.270;9.434;2022-11-14T06:25:58;-1.10;7.50
16663;DHT22;8445;51.270;9.434;2022-11-14T06:28:43;-1.00;0.90
16663;DHT22;8445;51.270;9.434;2022-11-14T06:31:27;-1.00;1.50
16663;DHT22;8445;51.270;9.434;2022-11-14T06:34:12;-0.90;2.90
16663;DHT22;8445;51.270;9.434;2022-11-14T06:36:56;-0.90;4.90
16663;DHT22;8445;51.270;9.434;2022-11-14T06:39:41;-0.90;7.30
16663;DHT22;8445;51.270;9.434;2022-11-14T06:42:26;-0.90;10.90
16663;DHT22;8445;51.270;9.434;2022-11-14T06:45:10;-0.90;11.00
16663;DHT22;8445;51.270;9.434;2022-11-14T06:47:58;-0.90;8.50
16663;DHT22;8445;51.270;9.434;2022-11-14T06:50:43;-0.90;8.10
16663;DHT22;8445;51.270;9.434;2022-11-14T06:53:35;-0.90;9.70
16663;DHT22;8445;51.270;9.434;2022-11-14T06:56:20;-0.90;13.20
16663;DHT22;8445;51.270;9.434;2022-11-14T06:59:05;-1.00;15.30
16663;DHT22;8445;51.270;9.434;2022-11-14T07:01:50;-1.00;15.80
16663;DHT22;8445;51.270;9.434;2022-11-14T07:04:34;-1.00;16.60
16663;DHT22;8445;51.270;9.434;2022-11-14T07:07:19;-1.10;16.60
16663;DHT22;8445;51.270;9.434;2022-11-14T07:10:04;-1.10;16.30
16663;DHT22;8445;51.270;9.434;2022-11-14T07:12:48;-1.10;14.70
16663;DHT22;8445;51.270;9.434;2022-11-14T07:15:33;-1.10;12.40
16663;DHT22;8445;51.270;9.434;2022-11-14T07:18:18;-1.00;9.90
16663;DHT22;8445;51.270;9.434;2022-11-14T07:21:05;-0.90;7.00
16663;DHT22;8445;51.270;9.434;2022-11-14T07:23:49;-0.80;6.10
16663;DHT22;8445;51.270;9.434;2022-11-14T07:26:34;-0.70;3.70
16663;DHT22;8445;51.270;9.434;2022-11-14T07:29:18;-0.50;3.30
16663;DHT22;8445;51.270;9.434;2022-11-14T07:32:03;-0.40;6.00
16663;DHT22;8445;51.270;9.434;2022-11-14T07:34:48;-0.40;9.50
16663;DHT22;8445;51.270;9.434;2022-11-14T07:37:32;-0.30;12.10
16663;DHT22;8445;51.270;9.434;2022-11-14T07:40:17;-0.30;13.70
16663;DHT22;8445;51.270;9.434;2022-11-14T07:43:02;-0.20;15.10
16663;DHT22;8445;51.270;9.434;2022-11-14T07:45:47;-0.20;15.80
16663;DHT22;8445;51.270;9.434;2022-11-14T07:48:31;-0.10;15.60
16663;DHT22;8445;51.270;9.434;2022-11-14T07:51:18;-0.10;15.60
16663;DHT22;8445;51.270;9.434;2022-11-14T07:54:04;0.00;15.60
16663;DHT22;8445;51.270;9.434;2022-11-14T07:56:48;0.00;16.90
16663;DHT22;8445;51.270;9.434;2022-11-14T07:59:33;0.10;17.70
16663;DHT22;8445;51.270;9.434;2022-11-14T08:02:18;0.10;17.90
16663;DHT22;8445;51.270;9.434;2022-11-14T08:05:02;0.10;18.10
16663;DHT22;8445;51.270;9.434;2022-11-14T08:07:50;0.20;16.80
16663;DHT22;8445;51.270;9.434;2022-11-14T08:10:35;0.20;15.40
16663;DHT22;8445;51.270;9.434;2022-11-14T08:13:20;0.30;14.70
16663;DHT22;8445;51.270;9.434;2022-11-14T08:16:06;0.40;14.80
16663;DHT22;8445;51.270;9.434;2022-11-14T08:18:51;0.50;15.10
16663;DHT22;8445;51.270;9.434;2022-11-14T08:21:36;0.60;16.10
16663;DHT22;8445;51.270;9.434;2022-11-14T08:24:21;0.70;17.40
16663;DHT22;8445;51.270;9.434;2022-11-14T08:27:05;0.80;18.20
16663;DHT22;8445;51.270;9.434;2022-11-14T08:29:50;0.80;18.40
16663;DHT22;8445;51.270;9.434;2022-11-14T08:32:35;0.90;18.20
16663;DHT22;8445;51.270;9.434;2022-11-14T08:35:20;1.00;17.40
16663;DHT22;8445;51.270;9.434;2022-11-14T08:38:05;1.00;15.80
16663;DHT22;8445;51.270;9.434;2022-11-14T08:40:50;1.20;15.10
16663;DHT22;8445;51.270;9.434;2022-11-14T08:43:35;1.30;13.00
16663;DHT22;8445;51.270;9.434;2022-11-14T08:46:19;1.40;12.50
16663;DHT22;8445;51.270;9.434;2022-11-14T08:49:04;1.50;13.60
16663;DHT22;8445;51.270;9.434;2022-11-14T08:51:51;1.70;14.20
16663;DHT22;8445;51.270;9.434;2022-11-14T08:54:37;1.80;14.40
16663;DHT22;8445;51.270;9.434;2022-11-14T08:57:21;1.90;14.90
16663;DHT22;8445;51.270;9.434;2022-11-14T09:00:06;2.00;14.40
16663;DHT22;8445;51.270;9.434;2022-11-14T09:02:52;2.10;11.60
16663;DHT22;8445;51.270;9.434;2022-11-14T09:05:36;2.30;8.00
16663;DHT22;8445;51.270;9.434;2022-11-14T09:08:21;2.40;6.30
16663;DHT22;8445;51.270;9.434;2022-11-14T09:11:06;2.60;5.90
16663;DHT22;8445;51.270;9.434;2022-11-14T09:13:51;2.70;3.20
16663;DHT22;8445;51.270;9.434;2022-11-14T09:16:36;2.90;2.80
16663;DHT22;8445;51.270;9.434;2022-11-14T09:19:20;3.10;4.50
16663;DHT22;8445;51.270;9.434;2022-11-14T09:22:05;3.20;5.80
16663;DHT22;8445;51.270;9.434;2022-11-14T09:24:50;3.40;7.70
16663;DHT22;8445;51.270;9.434;2022-11-14T09:27:35;3.50;10.00
16663;DHT22;8445;51.270;9.434;2022-11-14T09:30:19;3.60;10.10
16663;DHT22;8445;51.270;9.434;2022-11-14T09:33:05;3.70;7.90
16663;DHT22;8445;51.270;9.434;2022-11-14T09:35:59;3.90;7.50
16663;DHT22;8445;51.270;9.434;2022-11-14T09:38:51;4.00;5.60
16663;DHT22;8445;51.270;9.434;2022-11-14T09:41:43;4.20;3.60
16663;DHT22;8445;51.270;9.434;2022-11-14T09:44:52;4.40;3.60
16663;DHT22;8445;51.270;9.434;2022-11-14T09:47:44;4.60;3.60
16663;DHT22;8445;51.270;9.434;2022-11-14T09:50:36;4.80;3.60
16663;DHT22;8445;51.270;9.434;2022-11-14T09:53:32;5.00;0.50
16663;DHT22;8445;51.270;9.434;2022-11-14T09:56:24;5.10;0.50
16663;DHT22;8445;51.270;9.434;2022-11-14T09:59:11;5.30;0.50
16663;DHT22;8445;51.270;9.434;2022-11-14T10:02:25;5.50;0.50
16663;DHT22;8445;51.270;9.434;2022-11-14T10:05:47;5.70;0.50
16663;DHT22;8445;51.270;9.434;2022-11-14T10:09:08;6.00;0.50
16663;DHT22;8445;51.270;9.434;2022-11-14T10:12:16;6.30;0.50
16663;DHT22;8445;51.270;9.434;2022-11-14T10:15:32;6.50;6.60
16663;DHT22;8445;51.270;9.434;2022-11-14T10:31:33;6.80;13.40
16663;DHT22;8445;51.270;9.434;2022-11-14T10:40:59;6.90;10.90
16663;DHT22;8445;51.270;9.434;2022-11-14T10:43:48;7.00;9.70
16663;DHT22;8445;51.270;9.434;2022-11-14T10:46:55;7.00;7.40
16663;DHT22;8445;51.270;9.434;2022-11-14T10:49:46;7.10;6.90
16663;DHT22;8445;51.270;9.434;2022-11-14T10:52:38;7.10;7.50
16663;DHT22;8445;51.270;9.434;2022-11-14T10:55:25;7.20;6.90
16663;DHT22;8445;51.270;9.434;2022-11-14T10:58:11;7.20;5.50
16663;DHT22;8445;51.270;9.434;2022-11-14T11:04:33;7.40;1.70
16663;DHT22;8445;51.270;9.434;2022-11-14T11:07:24;7.50;1.90
16663;DHT22;8445;51.270;9.434;2022-11-14T11:10:30;7.60;2.20
16663;DHT22;8445;51.270;9.434;2022-11-14T11:13:56;7.60;2.80
16663;DHT22;8445;51.270;9.434;2022-11-14T11:16:45;7.70;2.10
16663;DHT22;8445;51.270;9.434;2022-11-14T11:19:29;7.80;2.30
16663;DHT22;8445;51.270;9.434;2022-11-14T11:22:37;7.90;1.70
16663;DHT22;8445;51.270;9.434;2022-11-14T11:25:27;7.90;1.40
16663;DHT22;8445;51.270;9.434;2022-11-14T11:28:19;8.00;2.30
16663;DHT22;8445;51.270;9.434;2022-11-14T11:31:07;8.10;1.20
16663;DHT22;8445;51.270;9.434;2022-11-14T11:33:54;8.20;1.60
16663;DHT22;8445;51.270;9.434;2022-11-14T11:36:53;8.30;0.50
16663;DHT22;8445;51.270;9.434;2022-11-14T11:39:48;8.30;0.50
16663;DHT22;8445;51.270;9.434;2022-11-14T11:42:41;8.50;0.50
16663;DHT22;8445;51.270;9.434;2022-11-14T11:45:31;8.60;0.50
16663;DHT22;8445;51.270;9.434;2022-11-14T11:48:19;8.70;1.70
16663;DHT22;8445;51.270;9.434;2022-11-14T11:51:10;8.70;2.70
16663;DHT22;8445;51.270;9.434;2022-11-14T11:54:21;8.80;2.50
16663;DHT22;8445;51.270;9.434;2022-11-14T11:57:14;8.80;2.90
16663;DHT22;8445;51.270;9.434;2022-11-14T12:00:21;8.90;2.40
16663;DHT22;8445;51.270;9.434;2022-11-14T12:03:11;9.00;4.60
16663;DHT22;8445;51.270;9.434;2022-11-14T12:06:17;9.00;1.40
16663;DHT22;8445;51.270;9.434;2022-11-14T12:09:18;9.10;0.90
16663;DHT22;8445;51.270;9.434;2022-11-14T12:15:56;9.30;1.30
16663;DHT22;8445;51.270;9.434;2022-11-14T12:22:26;9.40;5.30
16663;DHT22;8445;51.270;9.434;2022-11-14T12:32:12;9.60;4.60
16663;DHT22;8445;51.270;9.434;2022-11-14T12:35:04;9.70;5.20
16663;DHT22;8445;51.270;9.434;2022-11-14T12:37:55;9.70;7.60
16663;DHT22;8445;51.270;9.434;2022-11-14T12:40:58;9.80;7.00
16663;DHT22;8445;51.270;9.434;2022-11-14T12:43:44;9.80;7.60
16663;DHT22;8445;51.270;9.434;2022-11-14T12:52:51;9.90;14.70
16663;DHT22;8445;51.270;9.434;2022-11-14T12:55:51;10.00;11.00
16663;DHT22;8445;51.270;9.434;2022-11-14T13:05:58;10.20;10.30
16663;DHT22;8445;51.270;9.434;2022-11-14T13:11:43;10.20;12.30
16663;DHT22;8445;51.270;9.434;2022-11-14T13:14:49;10.20;13.30
16663;DHT22;8445;51.270;9.434;2022-11-14T13:18:14;10.20;12.60
16663;DHT22;8445;51.270;9.434;2022-11-14T13:21:27;10.30;12.20
16663;DHT22;8445;51.270;9.434;2022-11-14T13:27:40;10.30;11.50
16663;DHT22;8445;51.270;9.434;2022-11-14T13:34:00;10.40;13.90
16663;DHT22;8445;51.270;9.434;2022-11-14T13:50:35;10.40;14.10
16663;DHT22;8445;51.270;9.434;2022-11-14T13:53:25;10.50;14.40
16663;DHT22;8445;51.270;9.434;2022-11-14T13:59:40;10.50;17.60
16663;DHT22;8445;51.270;9.434;2022-11-14T14:06:38;10.50;19.10
16663;DHT22;8445;51.270;9.434;2022-11-14T14:09:27;10.40;18.90
16663;DHT22;8445;51.270;9.434;2022-11-14T14:19:02;10.20;14.70
16663;DHT22;8445;51.270;9.434;2022-11-14T14:25:46;10.00;13.10
16663;DHT22;8445;51.270;9.434;2022-11-14T14:29:00;10.00;11.00
16663;DHT22;8445;51.270;9.434;2022-11-14T14:32:15;9.90;7.30
16663;DHT22;8445;51.270;9.434;2022-11-14T14:38:12;9.80;8.90
16663;DHT22;8445;51.270;9.434;2022-11-14T14:41:07;9.80;1.80
16663;DHT22;8445;51.270;9.434;2022-11-14T14:43:54;9.90;1.80
16663;DHT22;8445;51.270;9.434;2022-11-14T14:46:39;10.00;1.80
16663;DHT22;8445;51.270;9.434;2022-11-14T14:49:27;10.10;0.90
16663;DHT22;8445;51.270;9.434;2022-11-14T14:55:23;10.00;11.90
16663;DHT22;8445;51.270;9.434;2022-11-14T14:58:25;9.90;14.50
16663;DHT22;8445;51.270;9.434;2022-11-14T15:01:21;9.80;14.90
16663;DHT22;8445;51.270;9.434;2022-11-14T15:04:13;9.60;15.60
16663;DHT22;8445;51.270;9.434;2022-11-14T15:06:59;9.50;15.20
16663;DHT22;8445;51.270;9.434;2022-11-14T15:09:54;9.40;14.60
16663;DHT22;8445;51.270;9.434;2022-11-14T15:12:42;9.20;13.80
16663;DHT22;8445;51.270;9.434;2022-11-14T15:15:27;9.10;11.90
16663;DHT22;8445;51.270;9.434;2022-11-14T15:18:27;8.90;10.90
16663;DHT22;8445;51.270;9.434;2022-11-14T15:24:22;8.70;6.90
16663;DHT22;8445;51.270;9.434;2022-11-14T15:27:15;8.60;5.70
16663;DHT22;8445;51.270;9.434;2022-11-14T15:30:04;8.50;3.90
16663;DHT22;8445;51.270;9.434;2022-11-14T15:32:56;8.40;0.70
16663;DHT22;8445;51.270;9.434;2022-11-14T15:35:42;8.30;0.70
16663;DHT22;8445;51.270;9.434;2022-11-14T15:38:27;8.20;0.70
16663;DHT22;8445;51.270;9.434;2022-11-14T15:44:02;8.00;0.70
16663;DHT22;8445;51.270;9.434;2022-11-14T15:46:49;7.90;0.70
16663;DHT22;8445;51.270;9.434;2022-11-14T15:49:34;7.80;0.70
16663;DHT22;8445;51.270;9.434;2022-11-14T15:52:33;7.70;0.70
16663;DHT22;8445;51.270;9.434;2022-11-14T15:55:20;7.60;0.70
16663;DHT22;8445;51.270;9.434;2022-11-14T15:58:11;7.60;0.70
16663;DHT22;8445;51.270;9.434;2022-11-14T16:00:58;7.50;0.70
16663;DHT22;8445;51.270;9.434;2022-11-14T16:03:45;7.50;0.70
16663;DHT22;8445;51.270;9.434;2022-11-14T16:06:31;7.50;0.70
16663;DHT22;8445;51.270;9.434;2022-11-14T16:09:17;7.40;0.70
16663;DHT22;8445;51.270;9.434;2022-11-14T16:12:04;7.30;0.70
16663;DHT22;8445;51.270;9.434;2022-11-14T16:14:48;7.30;0.70
16663;DHT22;8445;51.270;9.434;2022-11-14T16:17:39;7.20;0.70
16663;DHT22;8445;51.270;9.434;2022-11-14T16:20:30;7.20;0.70
16663;DHT22;8445;51.270;9.434;2022-11-14T16:23:23;7.30;0.70
16663;DHT22;8445;51.270;9.434;2022-11-14T16:26:10;7.40;0.70
16663;DHT22;8445;51.270;9.434;2022-11-14T16:28:55;7.60;0.70
16663;DHT22;8445;51.270;9.434;2022-11-14T16:31:40;7.80;0.70
16663;DHT22;8445;51.270;9.434;2022-11-14T16:34:28;7.90;0.70
16663;DHT22;8445;51.270;9.434;2022-11-14T16:37:13;8.10;0.70
16663;DHT22;8445;51.270;9.434;2022-11-14T16:39:57;8.20;0.70
16663;DHT22;8445;51.270;9.434;2022-11-14T16:42:42;8.30;0.70
16663;DHT22;8445;51.270;9.434;2022-11-14T16:45:27;8.30;0.70
16663;DHT22;8445;51.270;9.434;2022-11-14T16:48:13;8.30;0.70
16663;DHT22;8445;51.270;9.434;2022-11-14T16:51:03;8.30;0.70
16663;DHT22;8445;51.270;9.434;2022-11-14T16:53:53;8.30;0.70
16663;DHT22;8445;51.270;9.434;2022-11-14T16:56:39;8.40;0.70
16663;DHT22;8445;51.270;9.434;2022-11-14T16:59:24;8.50;0.70
16663;DHT22;8445;51.270;9.434;2022-11-14T17:02:18;8.50;0.70
16663;DHT22;8445;51.270;9.434;2022-11-14T17:05:03;8.50;0.70
16663;DHT22;8445;51.270;9.434;2022-11-14T17:07:49;8.50;0.70
16663;DHT22;8445;51.270;9.434;2022-11-14T17:10:38;8.40;0.70
16663;DHT22;8445;51.270;9.434;2022-11-14T17:13:33;8.30;0.70
16663;DHT22;8445;51.270;9.434;2022-11-14T17:16:17;8.20;0.70
16663;DHT22;8445;51.270;9.434;2022-11-14T17:19:02;8.20;0.70
16663;DHT22;8445;51.270;9.434;2022-11-14T17:21:47;8.20;0.70
16663;DHT22;8445;51.270;9.434;2022-11-14T17:24:33;8.30;0.70
16663;DHT22;8445;51.270;9.434;2022-11-14T17:27:22;8.30;0.70
16663;DHT22;8445;51.270;9.434;2022-11-14T17:30:15;8.40;0.70
16663;DHT22;8445;51.270;9.434;2022-11-14T17:33:02;8.50;0.70
16663;DHT22;8445;51.270;9.434;2022-11-14T17:35:47;8.60;0.70
16663;DHT22;8445;51.270;9.434;2022-11-14T17:38:34;8.60;0.70
16663;DHT22;8445;51.270;9.434;2022-11-14T17:41:21;8.70;0.70
16663;DHT22;8445;51.270;9.434;2022-11-14T17:44:07;8.80;0.70
16663;DHT22;8445;51.270;9.434;2022-11-14T17:46:53;8.90;0.70
16663;DHT22;8445;51.270;9.434;2022-11-14T17:49:38;9.00;0.70
16663;DHT22;8445;51.270;9.434;2022-11-14T17:52:24;9.10;0.70
16663;DHT22;8445;51.270;9.434;2022-11-14T17:55:09;9.00;0.70
16663;DHT22;8445;51.270;9.434;2022-11-14T17:57:55;9.10;0.70
16663;DHT22;8445;51.270;9.434;2022-11-14T18:00:41;9.20;0.70
16663;DHT22;8445;51.270;9.434;2022-11-14T18:03:27;9.20;0.70
16663;DHT22;8445;51.270;9.434;2022-11-14T18:06:18;9.30;0.70
16663;DHT22;8445;51.270;9.434;2022-11-14T18:09:04;9.30;0.70
16663;DHT22;8445;51.270;9.434;2022-11-14T18:11:50;9.20;0.70
16663;DHT22;8445;51.270;9.434;2022-11-14T18:14:34;9.20;0.70
16663;DHT22;8445;51.270;9.434;2022-11-14T18:17:19;9.20;0.70
16663;DHT22;8445;51.270;9.434;2022-11-14T18:20:04;9.20;0.70
16663;DHT22;8445;51.270;9.434;2022-11-14T18:22:48;9.20;0.70
16663;DHT22;8445;51.270;9.434;2022-11-14T18:25:33;9.10;0.70
16663;DHT22;8445;51.270;9.434;2022-11-14T18:28:18;9.10;0.70
16663;DHT22;8445;51.270;9.434;2022-11-14T18:31:02;9.10;0.70
16663;DHT22;8445;51.270;9.434;2022-11-14T18:33:50;9.00;0.70
16663;DHT22;8445;51.270;9.434;2022-11-14T18:36:34;8.90;0.70
16663;DHT22;8445;51.270;9.434;2022-11-14T18:39:19;8.90;0.70
16663;DHT22;8445;51.270;9.434;2022-11-14T18:42:04;8.90;0.70
16663;DHT22;8445;51.270;9.434;2022-11-14T18:44:48;8.80;0.70
16663;DHT22;8445;51.270;9.434;2022-11-14T18:47:33;8.80;0.70
16663;DHT22;8445;51.270;9.434;2022-11-14T18:50:18;8.80;0.70
16663;DHT22;8445;51.270;9.434;2022-11-14T18:53:02;8.90;0.70
16663;DHT22;8445;51.270;9.434;2022-11-14T18:55:47;8.90;0.70
16663;DHT22;8445;51.270;9.434;2022-11-14T18:58:36;9.00;0.70
16663;DHT22;8445;51.270;9.434;2022-11-14T19:01:24;9.10;0.70
16663;DHT22;8445;51.270;9.434;2022-11-14T19:04:12;9.20;0.70
16663;DHT22;8445;51.270;9.434;2022-11-14T19:07:00;9.30;0.70
16663;DHT22;8445;51.270;9.434;2022-11-14T19:09:44;9.30;0.70
16663;DHT22;8445;51.270;9.434;2022-11-14T19:12:30;9.20;0.70
16663;DHT22;8445;51.270;9.434;2022-11-14T19:15:17;9.20;0.70
16663;DHT22;8445;51.270;9.434;2022-11-14T19:18:03;9.20;0.70
16663;DHT22;8445;51.270;9.434;2022-11-14T19:20:59;9.10;0.70
16663;DHT22;8445;51.270;9.434;2022-11-14T19:23:46;9.10;0.70
16663;DHT22;8445;51.270;9.434;2022-11-14T19:26:35;9.00;0.70
16663;DHT22;8445;51.270;9.434;2022-11-14T19:29:20;9.00;0.70
16663;DHT22;8445;51.270;9.434;2022-11-14T19:32:06;9.00;0.70
16663;DHT22;8445;51.270;9.434;2022-11-14T19:34:52;9.00;0.70
16663;DHT22;8445;51.270;9.434;2022-11-14T19:37:36;9.10;0.70
16663;DHT22;8445;51.270;9.434;2022-11-14T19:40:22;9.20;0.70
16663;DHT22;8445;51.270;9.434;2022-11-14T19:43:10;9.30;0.70
16663;DHT22;8445;51.270;9.434;2022-11-14T19:46:00;9.30;0.70
16663;DHT22;8445;51.270;9.434;2022-11-14T19:48:47;9.40;0.70
16663;DHT22;8445;51.270;9.434;2022-11-14T19:51:33;9.40;0.70
16663;DHT22;8445;51.270;9.434;2022-11-14T19:54:19;9.40;0.70
16663;DHT22;8445;51.270;9.434;2022-11-14T19:57:04;9.40;0.70
16663;DHT22;8445;51.270;9.434;2022-11-14T19:59:53;9.50;0.70